createdAt,value
2022-11-14T00:01:58.069Z,12.13
2022-11-14T00:04:29.329Z,12.14
2022-11-14T00:06:59.049Z,11.98
2022-11-14T00:09:32.311Z,11.99
2022-11-14T00:11:58.794Z,12.02
2022-11-14T00:14:25.363Z,11.98
2022-11-14T00:16:51.896Z,11.96
2022-11-14T00:19:18.515Z,12.07
2022-11-14T00:21:45.096Z,12.04
2022-11-14T00:24:11.744Z,12.03
2022-11-14T00:26:47.280Z,12.02
2022-11-14T00:29:15.366Z,12.01
2022-11-14T00:31:42.336Z,12.12
2022-11-14T00:34:09.224Z,12.02
2022-11-14T00:36:36.760Z,12.03
2022-11-14T00:39:16.284Z,11.90
2022-11-14T00:41:42.758Z,11.80
2022-11-14T00:44:09.460Z,11.89
2022-11-14T00:46:36.134Z,12.01
2022-11-14T00:49:08.435Z,12.03
2022-11-14T00:51:36.570Z,11.99
2022-11-14T00:54:03.560Z,12.05
2022-11-14T00:56:35.629Z,12.12
2022-11-14T00:59:05.176Z,12.11
2022-11-14T01:01:35.229Z,12.02
2022-11-14T01:04:02.178Z,11.98
2022-11-14T01:06:31.741Z,11.98
2022-11-14T01:08:59.442Z,11.85
2022-11-14T01:11:26.144Z,11.79
2022-11-14T01:13:52.669Z,11.94
2022-11-14T01:16:27.505Z,12.05
2022-11-14T01:18:54.724Z,12.01
2022-11-14T01:21:23.089Z,11.99
2022-11-14T01:23:54.730Z,11.98
2022-11-14T01:26:24.853Z,12.00
2022-11-14T01:28:51.550Z,12.04
2022-11-14T01:31:24.460Z,11.99
2022-11-14T01:33:52.918Z,11.96
2022-11-14T01:36:20.402Z,12.12
2022-11-14T01:38:47.036Z,12.31
2022-11-14T01:41:16.594Z,12.28
2022-11-14T01:43:43.542Z,12.16
2022-11-14T01:46:15.357Z,12.12
2022-11-14T01:48:47.695Z,12.04
2022-11-14T01:51:25.155Z,11.86
2022-11-14T01:53:54.727Z,11.76
2022-11-14T01:56:39.966Z,11.80
2022-11-14T01:59:18.013Z,11.83
2022-11-14T02:01:50.903Z,12.00
2022-11-14T02:04:45.121Z,11.89
2022-11-14T02:07:12.862Z,11.90
2022-11-14T02:09:43.154Z,11.74
2022-11-14T02:12:13.269Z,11.76
2022-11-14T02:14:41.475Z,11.70
2022-11-14T02:17:28.387Z,11.66
2022-11-14T02:20:05.774Z,11.68
2022-11-14T02:22:32.658Z,11.78
2022-11-14T02:25:03.058Z,11.65
2022-11-14T02:27:31.436Z,11.70
2022-11-14T02:30:07.284Z,11.80
2022-11-14T02:32:57.095Z,11.71
2022-11-14T02:35:20.496Z,11.79
2022-11-14T02:37:47.014Z,11.87
2022-11-14T02:40:14.414Z,11.87
2022-11-14T02:42:43.942Z,11.75
2022-11-14T02:45:12.048Z,11.66
2022-11-14T02:47:38.595Z,11.70
2022-11-14T02:50:05.562Z,11.72
2022-11-14T02:52:32.080Z,11.84
2022-11-14T02:54:58.583Z,11.77
2022-11-14T02:57:24.989Z,11.79
2022-11-14T02:59:51.531Z,11.88
2022-11-14T03:02:17.993Z,11.85
2022-11-14T03:04:47.339Z,11.75
2022-11-14T03:07:16.825Z,11.76
2022-11-14T03:09:50.595Z,11.70
2022-11-14T03:12:18.450Z,11.80
2022-11-14T03:14:45.218Z,11.80
2022-11-14T03:17:12.009Z,11.73
2022-11-14T03:19:40.601Z,11.76
2022-11-14T03:22:07.254Z,11.77
2022-11-14T03:24:33.936Z,11.75
2022-11-14T03:27:00.772Z,11.78
2022-11-14T03:29:27.555Z,11.79
2022-11-14T03:31:54.093Z,11.74
2022-11-14T03:34:20.672Z,11.74
2022-11-14T03:36:47.109Z,11.76
2022-11-14T03:39:13.725Z,11.73
2022-11-14T03:41:40.218Z,11.73
2022-11-14T03:44:06.806Z,11.82
2022-11-14T03:46:33.302Z,11.84
2022-11-14T03:48:59.708Z,11.75
2022-11-14T03:51:26.225Z,11.75
2022-11-14T03:53:52.734Z,11.70
2022-11-14T03:56:19.246Z,11.65
2022-11-14T03:58:45.702Z,11.66
2022-11-14T04:01:12.478Z,11.68
2022-11-14T04:03:39.059Z,11.61
2022-11-14T04:06:05.746Z,11.66
2022-11-14T04:08:32.928Z,11.63
2022-11-14T04:10:59.745Z,11.75
2022-11-14T04:13:26.286Z,11.63
2022-11-14T04:15:57.699Z,11.68
2022-11-14T04:18:25.412Z,11.77
2022-11-14T04:20:55.573Z,11.83
2022-11-14T04:23:22.389Z,11.76
2022-11-14T04:25:49.035Z,11.81
2022-11-14T04:28:15.595Z,11.80
2022-11-14T04:30:45.330Z,11.72
2022-11-14T04:33:12.261Z,11.78
2022-11-14T04:35:39.014Z,11.80
2022-11-14T04:38:05.584Z,11.78
2022-11-14T04:40:32.121Z,11.71
2022-11-14T04:42:59.016Z,11.64
2022-11-14T04:45:25.687Z,11.63
2022-11-14T04:47:52.232Z,11.63
2022-11-14T04:50:19.006Z,11.60
2022-11-14T04:52:45.454Z,11.69
2022-11-14T04:55:11.961Z,11.71
2022-11-14T04:57:38.599Z,11.68
2022-11-14T05:00:05.849Z,11.63
2022-11-14T05:02:35.396Z,11.55
2022-11-14T05:05:03.689Z,11.63
2022-11-14T05:07:30.276Z,11.65
2022-11-14T05:09:56.893Z,11.58
2022-11-14T05:12:23.376Z,11.49
2022-11-14T05:14:50.001Z,11.47
2022-11-14T05:17:16.788Z,11.39
2022-11-14T05:19:43.192Z,11.38
2022-11-14T05:22:09.645Z,11.44
2022-11-14T05:24:36.154Z,11.42
2022-11-14T05:27:02.748Z,11.39
2022-11-14T05:29:29.399Z,11.38
2022-11-14T05:31:56.254Z,11.35
2022-11-14T05:34:22.724Z,11.20
2022-11-14T05:36:49.247Z,11.10
2022-11-14T05:39:16.555Z,11.03
2022-11-14T05:41:43.050Z,11.21
2022-11-14T05:44:09.925Z,11.30
2022-11-14T05:46:40.885Z,11.16
2022-11-14T05:49:09.490Z,11.35
2022-11-14T05:51:39.479Z,11.25
2022-11-14T05:54:06.762Z,11.22
2022-11-14T05:56:33.297Z,11.32
2022-11-14T05:58:59.926Z,11.30
2022-11-14T06:01:29.693Z,11.28
2022-11-14T06:03:59.003Z,11.19
2022-11-14T06:06:25.497Z,11.32
2022-11-14T06:08:53.044Z,11.41
2022-11-14T06:11:20.966Z,11.32
2022-11-14T06:13:54.475Z,11.32
2022-11-14T06:16:24.067Z,11.32
2022-11-14T06:18:53.834Z,11.09
2022-11-14T06:21:23.167Z,11.35
2022-11-14T06:23:50.606Z,11.28
2022-11-14T06:26:41.787Z,11.33
2022-11-14T06:29:10.501Z,11.38
2022-11-14T06:31:36.939Z,11.39
2022-11-14T06:34:05.210Z,11.26
2022-11-14T06:36:31.986Z,11.21
2022-11-14T06:39:01.678Z,11.08
2022-11-14T06:41:29.330Z,10.95
2022-11-14T06:43:56.028Z,10.97
2022-11-14T06:46:23.069Z,11.00
2022-11-14T06:48:54.648Z,11.02
2022-11-14T06:51:21.388Z,11.05
2022-11-14T06:53:48.067Z,11.08
2022-11-14T06:56:18.280Z,10.99
2022-11-14T06:58:49.958Z,10.97
2022-11-14T07:01:17.761Z,11.18
2022-11-14T07:03:45.470Z,11.19
2022-11-14T07:06:18.699Z,11.20
2022-11-14T07:08:45.576Z,11.20
2022-11-14T07:11:31.374Z,11.28
2022-11-14T07:14:03.734Z,12.11
2022-11-14T07:16:33.319Z,11.97
2022-11-14T07:19:00.439Z,12.36
2022-11-14T07:21:28.496Z,11.96
2022-11-14T07:23:55.841Z,11.80
2022-11-14T07:26:25.374Z,11.73
2022-11-14T07:29:03.219Z,11.68
2022-11-14T07:31:30.029Z,11.61
2022-11-14T07:33:56.670Z,11.50
2022-11-14T07:36:24.156Z,11.37
2022-11-14T07:38:50.718Z,11.40
2022-11-14T07:41:18.246Z,11.32
2022-11-14T07:43:44.940Z,11.34
2022-11-14T07:46:16.753Z,11.29
2022-11-14T07:48:43.527Z,11.39
2022-11-14T07:51:21.608Z,11.32
2022-11-14T07:53:48.231Z,11.38
2022-11-14T07:56:17.368Z,11.33
2022-11-14T07:58:47.045Z,11.21
2022-11-14T08:01:14.977Z,11.19
2022-11-14T08:03:46.236Z,11.06
2022-11-14T08:06:17.098Z,11.14
2022-11-14T08:08:43.873Z,11.26
2022-11-14T08:11:11.537Z,11.51
2022-11-14T08:13:38.149Z,11.40
2022-11-14T08:16:13.725Z,11.46
2022-11-14T08:18:41.429Z,11.66
2022-11-14T08:21:08.191Z,12.87
2022-11-14T08:23:34.767Z,12.36
2022-11-14T08:26:01.291Z,12.10
2022-11-14T08:28:28.210Z,12.12
2022-11-14T08:31:00.804Z,12.26
2022-11-14T08:33:30.831Z,12.82
2022-11-14T08:36:13.034Z,13.37
2022-11-14T08:38:44.505Z,13.71
2022-11-14T08:41:11.318Z,13.99
2022-11-14T08:43:37.825Z,13.50
2022-11-14T08:46:08.533Z,13.28
2022-11-14T08:48:35.113Z,13.97
2022-11-14T08:51:07.837Z,13.03
2022-11-14T08:53:35.403Z,12.57
2022-11-14T08:56:02.943Z,12.42
2022-11-14T08:58:31.258Z,13.14
2022-11-14T09:01:03.413Z,13.31
2022-11-14T09:03:30.067Z,13.34
2022-11-14T09:05:56.860Z,13.03
2022-11-14T09:08:23.541Z,13.38
2022-11-14T09:10:53.170Z,12.96
2022-11-14T09:13:19.897Z,13.06
2022-11-14T09:15:46.498Z,12.66
2022-11-14T09:18:13.280Z,12.73
2022-11-14T09:20:40.501Z,12.81
2022-11-14T09:23:10.775Z,12.80
2022-11-14T09:25:37.638Z,13.12
2022-11-14T09:28:08.924Z,12.85
2022-11-14T09:30:36.909Z,12.82
2022-11-14T09:33:11.210Z,12.67
2022-11-14T09:35:38.652Z,12.72
2022-11-14T09:38:11.347Z,12.80
2022-11-14T09:41:00.603Z,13.18
2022-11-14T09:43:51.898Z,13.24
2022-11-14T09:46:40.144Z,13.20
2022-11-14T09:49:33.275Z,13.07
2022-11-14T09:52:26.446Z,12.93
2022-11-14T09:55:00.680Z,13.14
2022-11-14T09:57:27.564Z,13.43
2022-11-14T09:59:58.503Z,13.56
2022-11-14T10:02:38.900Z,13.64
2022-11-14T10:05:24.317Z,13.37
2022-11-14T10:08:09.259Z,13.31
2022-11-14T10:10:48.805Z,13.58
2022-11-14T10:13:41.838Z,13.37
2022-11-14T10:16:15.654Z,13.32
2022-11-14T10:19:06.162Z,13.43
2022-11-14T10:21:58.045Z,13.35
2022-11-14T10:24:43.211Z,13.32
2022-11-14T10:27:18.644Z,13.36
2022-11-14T10:29:48.300Z,13.21
2022-11-14T10:32:22.389Z,13.31
2022-11-14T10:35:11.820Z,13.34
2022-11-14T10:37:51.446Z,13.45
2022-11-14T10:40:24.765Z,13.61
2022-11-14T10:42:57.464Z,13.71
2022-11-14T10:45:28.488Z,13.86
2022-11-14T10:48:05.032Z,13.98
2022-11-14T10:50:54.756Z,14.12
2022-11-14T10:53:34.846Z,14.31
2022-11-14T10:56:05.385Z,14.22
2022-11-14T10:58:38.436Z,14.06
2022-11-14T11:01:41.363Z,13.98
2022-11-14T11:04:29.217Z,14.31
2022-11-14T11:07:12.228Z,15.35
2022-11-14T11:10:10.390Z,14.65
2022-11-14T11:12:36.919Z,15.42
2022-11-14T11:15:18.063Z,14.77
2022-11-14T11:18:06.273Z,14.75
2022-11-14T11:20:39.727Z,15.47
2022-11-14T11:23:07.615Z,14.92
2022-11-14T11:25:34.847Z,14.45
2022-11-14T11:28:16.525Z,14.94
2022-11-14T11:31:01.289Z,14.62
2022-11-14T11:33:40.417Z,14.63
2022-11-14T11:36:18.339Z,14.83
2022-11-14T11:38:46.109Z,14.53
2022-11-14T11:44:16.831Z,14.52
2022-11-14T11:47:08.643Z,14.41
2022-11-14T11:49:52.929Z,14.35
2022-11-14T11:52:40.043Z,14.50
2022-11-14T11:55:09.411Z,14.60
2022-11-14T11:58:00.743Z,14.39
2022-11-14T12:00:27.359Z,14.43
2022-11-14T12:02:54.717Z,14.51
2022-11-14T12:05:25.989Z,14.59
2022-11-14T12:08:04.912Z,14.82
2022-11-14T12:10:36.894Z,14.61
2022-11-14T12:13:12.410Z,14.27
2022-11-14T12:15:46.561Z,14.68
2022-11-14T12:18:59.480Z,14.78
2022-11-14T12:22:03.818Z,14.87
2022-11-14T12:24:47.014Z,14.92
2022-11-14T12:27:19.711Z,15.31
2022-11-14T12:29:55.097Z,15.15
2022-11-14T12:32:48.502Z,14.97
2022-11-14T12:35:21.060Z,14.42
2022-11-14T12:37:55.437Z,14.34
2022-11-14T12:40:32.028Z,14.40
2022-11-14T12:43:00.404Z,14.58
2022-11-14T12:45:42.284Z,14.72
2022-11-14T12:48:26.706Z,14.37
2022-11-14T12:50:54.466Z,14.64
2022-11-14T12:53:35.865Z,14.65
2022-11-14T12:56:21.424Z,14.66
2022-11-14T12:59:06.159Z,14.70
2022-11-14T13:01:50.487Z,14.64
2022-11-14T13:04:22.884Z,14.19
2022-11-14T13:07:14.326Z,13.94
2022-11-14T13:10:14.520Z,14.32
2022-11-14T13:13:18.660Z,14.81
2022-11-14T13:16:11.756Z,14.39
2022-11-14T13:19:15.935Z,14.51
2022-11-14T13:22:13.289Z,15.09
2022-11-14T13:24:58.602Z,14.69
2022-11-14T13:27:45.572Z,14.30
2022-11-14T13:30:14.685Z,14.34
2022-11-14T13:32:41.184Z,14.83
2022-11-14T13:35:19.877Z,14.80
2022-11-14T13:37:52.324Z,14.50
2022-11-14T13:40:27.796Z,14.54
2022-11-14T13:43:00.632Z,14.88
2022-11-14T13:45:59.592Z,15.11
2022-11-14T13:49:03.721Z,14.94
2022-11-14T13:51:47.461Z,14.60
2022-11-14T13:54:17.829Z,14.83
2022-11-14T13:57:16.977Z,14.34
2022-11-14T14:00:02.563Z,14.23
2022-11-14T14:02:53.822Z,14.16
2022-11-14T14:05:55.557Z,14.12
2022-11-14T14:08:43.830Z,14.82
2022-11-14T14:11:13.229Z,14.47
2022-11-14T14:14:12.126Z,14.68
2022-11-14T14:16:56.034Z,14.36
2022-11-14T14:19:52.459Z,14.80
2022-11-14T14:22:30.245Z,14.23
2022-11-14T14:25:35.414Z,14.25
2022-11-14T14:28:12.629Z,14.41
2022-11-14T14:30:39.430Z,14.72
2022-11-14T14:33:08.697Z,14.47
2022-11-14T14:35:40.654Z,14.16
2022-11-14T14:38:13.019Z,14.16
2022-11-14T14:40:42.419Z,14.11
2022-11-14T14:43:22.158Z,14.39
2022-11-14T14:45:53.520Z,14.70
2022-11-14T14:48:31.076Z,14.40
2022-11-14T14:50:59.966Z,13.91
2022-11-14T14:53:26.448Z,13.92
2022-11-14T14:56:03.181Z,14.06
2022-11-14T14:58:33.086Z,14.27
2022-11-14T15:01:47.297Z,13.91
2022-11-14T15:04:16.713Z,13.90
2022-11-14T15:06:46.737Z,13.95
2022-11-14T15:09:18.988Z,13.76
2022-11-14T15:11:58.938Z,13.94
2022-11-14T15:14:33.122Z,13.89
2022-11-14T15:17:00.404Z,13.76
2022-11-14T15:19:53.677Z,14.06
2022-11-14T15:22:29.254Z,13.65
2022-11-14T15:25:13.622Z,13.54
2022-11-14T15:27:52.433Z,13.50
2022-11-14T15:30:31.212Z,13.39
2022-11-14T15:33:02.982Z,13.29
2022-11-14T15:35:43.406Z,13.33
2022-11-14T15:41:19.010Z,13.12
2022-11-14T15:43:45.490Z,13.02
2022-11-14T15:46:28.690Z,12.79
2022-11-14T15:48:55.957Z,12.87
2022-11-14T15:51:49.660Z,12.76
2022-11-14T15:54:22.608Z,12.68
2022-11-14T15:56:49.254Z,12.75
2022-11-14T15:59:15.808Z,12.85
2022-11-14T16:01:44.204Z,12.79
2022-11-14T16:04:16.401Z,12.96
2022-11-14T16:06:42.988Z,13.06
2022-11-14T16:09:18.574Z,12.85
2022-11-14T16:11:46.342Z,12.71
2022-11-14T16:14:15.286Z,12.59
2022-11-14T16:16:42.056Z,12.64
2022-11-14T16:19:12.871Z,12.74
2022-11-14T16:21:47.516Z,12.45
2022-11-14T16:24:20.249Z,12.31
2022-11-14T16:26:49.529Z,12.25
2022-11-14T16:29:16.876Z,12.26
2022-11-14T16:31:43.826Z,12.40
2022-11-14T16:34:22.222Z,12.29
2022-11-14T16:36:49.341Z,12.39
2022-11-14T16:39:15.945Z,12.23
2022-11-14T16:41:42.462Z,12.16
2022-11-14T16:44:15.576Z,12.05
2022-11-14T16:46:43.178Z,12.14
2022-11-14T16:49:14.139Z,12.30
2022-11-14T16:51:50.316Z,12.17
2022-11-14T16:54:19.521Z,11.97
2022-11-14T16:56:46.450Z,11.95
2022-11-14T16:59:13.182Z,11.83
2022-11-14T17:01:39.807Z,12.10
2022-11-14T17:04:06.803Z,12.20
2022-11-14T17:06:36.814Z,12.26
2022-11-14T17:09:14.768Z,12.30
2022-11-14T17:11:41.462Z,12.35
2022-11-14T17:14:11.259Z,12.46
2022-11-14T17:16:37.788Z,12.36
2022-11-14T17:19:23.173Z,12.39
2022-11-14T17:21:50.018Z,12.30
2022-11-14T17:24:16.769Z,12.53
2022-11-14T17:26:43.524Z,12.59
2022-11-14T17:29:11.960Z,12.26
2022-11-14T17:31:45.817Z,12.33
2022-11-14T17:34:13.411Z,12.68
2022-11-14T17:36:39.996Z,12.71
2022-11-14T17:39:09.629Z,12.53
2022-11-14T17:41:36.083Z,12.48
2022-11-14T17:44:09.907Z,12.09
2022-11-14T17:46:36.611Z,11.87
2022-11-14T17:49:03.409Z,11.76
2022-11-14T17:51:30.312Z,11.70
2022-11-14T17:53:57.041Z,11.79
2022-11-14T17:56:25.432Z,12.11
2022-11-14T17:58:53.675Z,12.07
2022-11-14T18:01:23.606Z,12.16
2022-11-14T18:03:50.946Z,11.98
2022-11-14T18:06:20.304Z,12.04
2022-11-14T18:08:50.266Z,11.96
2022-11-14T18:11:17.997Z,11.88
2022-11-14T18:13:44.668Z,11.82
2022-11-14T18:16:14.888Z,11.94
2022-11-14T18:18:41.412Z,11.91
2022-11-14T18:21:26.522Z,11.97
2022-11-14T18:23:58.005Z,11.77
2022-11-14T18:26:29.149Z,11.65
2022-11-14T18:29:01.755Z,11.61
2022-11-14T18:31:28.698Z,11.62
2022-11-14T18:33:55.897Z,11.44
2022-11-14T18:36:23.200Z,11.51
2022-11-14T18:38:49.713Z,11.63
2022-11-14T18:41:18.563Z,11.53
2022-11-14T18:43:45.792Z,11.49
2022-11-14T18:46:15.450Z,11.60
2022-11-14T18:48:45.276Z,11.52
2022-11-14T18:51:23.491Z,11.51
2022-11-14T18:53:51.368Z,11.39
2022-11-14T18:56:20.559Z,11.59
2022-11-14T18:58:47.548Z,11.60
2022-11-14T19:01:26.504Z,11.54
2022-11-14T19:04:01.808Z,11.55
2022-11-14T19:06:30.404Z,11.40
2022-11-14T19:09:01.121Z,11.44
2022-11-14T19:11:46.528Z,11.24
2022-11-14T19:14:13.095Z,11.25
2022-11-14T19:16:39.647Z,11.15
2022-11-14T19:19:07.209Z,11.14
2022-11-14T19:21:33.933Z,11.21
2022-11-14T19:24:00.644Z,11.23
2022-11-14T19:26:27.987Z,11.36
2022-11-14T19:28:55.112Z,11.41
2022-11-14T19:31:22.465Z,11.38
2022-11-14T19:33:49.329Z,11.43
2022-11-14T19:36:38.578Z,11.16
2022-11-14T19:39:06.108Z,11.30
2022-11-14T19:41:32.746Z,11.21
2022-11-14T19:44:01.332Z,11.28
2022-11-14T19:46:31.055Z,11.23
2022-11-14T19:48:58.752Z,11.12
2022-11-14T19:51:26.402Z,11.44
2022-11-14T19:53:54.283Z,11.32
2022-11-14T19:56:22.034Z,11.11
2022-11-14T19:58:50.388Z,11.17
2022-11-14T20:01:23.000Z,11.31
2022-11-14T20:03:57.135Z,11.44
2022-11-14T20:06:29.351Z,11.31
2022-11-14T20:08:57.335Z,11.08
2022-11-14T20:11:27.147Z,11.12
2022-11-14T20:13:53.741Z,11.42
2022-11-14T20:16:22.820Z,11.07
2022-11-14T20:18:54.453Z,10.98
2022-11-14T20:21:26.511Z,10.82
2022-11-14T20:23:53.640Z,10.94
2022-11-14T20:26:21.161Z,10.76
2022-11-14T20:28:50.686Z,10.90
2022-11-14T20:31:20.936Z,10.80
2022-11-14T20:33:49.374Z,11.01
2022-11-14T20:36:18.884Z,11.07
2022-11-14T20:38:48.260Z,11.23
2022-11-14T20:41:19.160Z,11.37
2022-11-14T20:43:46.313Z,11.32
2022-11-14T20:46:24.473Z,11.79
2022-11-14T20:48:54.530Z,11.47
2022-11-14T20:51:29.114Z,11.68
2022-11-14T20:53:56.542Z,11.90
2022-11-14T20:56:24.315Z,11.92
2022-11-14T20:58:55.412Z,11.86
2022-11-14T21:01:22.211Z,12.02
2022-11-14T21:03:48.854Z,12.12
2022-11-14T21:06:16.690Z,11.96
2022-11-14T21:08:43.368Z,12.15
2022-11-14T21:11:16.014Z,12.14
2022-11-14T21:13:58.766Z,11.94
2022-11-14T21:16:37.448Z,12.13
2022-11-14T21:19:04.730Z,11.90
2022-11-14T21:21:34.840Z,11.79
2022-11-14T21:24:01.473Z,11.79
2022-11-14T21:26:33.323Z,11.71
2022-11-14T21:29:09.756Z,11.65
2022-11-14T21:31:38.964Z,11.76
2022-11-14T21:34:07.629Z,11.49
2022-11-14T21:36:44.974Z,11.99
2022-11-14T21:39:14.986Z,11.88
2022-11-14T21:41:42.981Z,11.73
2022-11-14T21:44:17.593Z,11.90
2022-11-14T21:46:48.584Z,11.88
2022-11-14T21:49:15.776Z,11.57
2022-11-14T21:51:42.529Z,11.67
2022-11-14T21:54:09.857Z,11.74
2022-11-14T21:56:37.187Z,11.59
2022-11-14T21:59:15.354Z,11.53
2022-11-14T22:02:06.155Z,11.59
2022-11-14T22:04:33.663Z,11.54
2022-11-14T22:07:02.877Z,11.77
2022-11-14T22:09:29.894Z,11.65
2022-11-14T22:11:56.804Z,11.50
2022-11-14T22:14:23.874Z,11.81
2022-11-14T22:16:50.523Z,11.90
2022-11-14T22:19:17.258Z,11.69
2022-11-14T22:21:43.876Z,11.70
2022-11-14T22:24:10.549Z,11.55
2022-11-14T22:26:39.903Z,11.20
2022-11-14T22:29:07.262Z,11.12
2022-11-14T22:31:33.826Z,10.86
2022-11-14T22:34:03.482Z,10.79
2022-11-14T22:36:30.020Z,11.06
2022-11-14T22:38:56.898Z,10.98
2022-11-14T22:41:30.483Z,11.13
2022-11-14T22:43:59.325Z,10.91
2022-11-14T22:46:27.125Z,10.77
2022-11-14T22:48:55.997Z,10.97
2022-11-14T22:51:25.552Z,10.84
2022-11-14T22:54:00.887Z,10.86
2022-11-14T22:56:29.325Z,11.17
2022-11-14T22:58:56.576Z,11.12
2022-11-14T23:01:41.689Z,10.82
2022-11-14T23:04:09.528Z,10.81
2022-11-14T23:06:41.918Z,10.90
2022-11-14T23:09:11.638Z,10.78
2022-11-14T23:11:38.215Z,11.11
2022-11-14T23:14:04.819Z,10.94
2022-11-14T23:16:38.271Z,11.08
2022-11-14T23:19:04.968Z,10.92
2022-11-14T23:21:38.003Z,10.91
2022-11-14T23:24:12.460Z,10.77
2022-11-14T23:26:41.911Z,10.89
2022-11-14T23:29:19.395Z,10.90
2022-11-14T23:31:46.359Z,10.97
2022-11-14T23:34:17.130Z,10.87
2022-11-14T23:36:43.700Z,10.77
2022-11-14T23:39:10.779Z,10.47
2022-11-14T23:41:46.565Z,10.85
2022-11-14T23:44:13.052Z,10.67
2022-11-14T23:46:39.546Z,10.44
2022-11-14T23:49:06.062Z,10.28
2022-11-14T23:51:33.772Z,10.32
2022-11-14T23:54:00.279Z,10.30
2022-11-14T23:56:26.849Z,10.28
2022-11-14T23:58:53.339Z,10.50
